createdAt,value
2023-03-16T00:00:48.695Z,2.49
2023-03-16T00:04:48.636Z,2.42
2023-03-16T00:08:48.544Z,2.41
2023-03-16T00:12:48.525Z,2.39
2023-03-16T00:16:48.546Z,2.37
2023-03-16T00:20:48.447Z,2.33
2023-03-16T00:24:48.413Z,2.29
2023-03-16T00:28:48.380Z,2.27
2023-03-16T00:32:48.392Z,2.26
2023-03-16T00:36:48.320Z,2.19
2023-03-16T00:40:48.258Z,2.15
2023-03-16T00:44:48.222Z,2.14
2023-03-16T00:48:48.158Z,2.13
2023-03-16T00:52:48.116Z,2.13
2023-03-16T00:56:48.078Z,2.12
2023-03-16T01:00:48.076Z,2.08
2023-03-16T01:04:47.971Z,2.03
2023-03-16T01:08:47.929Z,2.00
2023-03-16T01:12:47.883Z,2.00
2023-03-16T01:16:47.897Z,1.99
2023-03-16T01:20:47.796Z,1.97
2023-03-16T01:24:47.700Z,1.94
2023-03-16T01:28:47.624Z,1.91
2023-03-16T01:32:47.573Z,1.88
2023-03-16T01:36:47.516Z,1.88
2023-03-16T01:40:47.477Z,1.87
2023-03-16T01:44:49.287Z,1.85
2023-03-16T01:48:47.346Z,1.80
2023-03-16T01:52:47.362Z,1.79
2023-03-16T01:56:47.309Z,1.81
2023-03-16T02:00:47.245Z,1.79
2023-03-16T02:04:47.259Z,1.75
2023-03-16T02:08:47.184Z,1.74
2023-03-16T02:12:47.124Z,1.71
2023-03-16T02:16:47.075Z,1.71
2023-03-16T02:20:47.044Z,1.67
2023-03-16T02:24:47.015Z,1.66
2023-03-16T02:28:46.985Z,1.67
2023-03-16T02:32:47.031Z,1.63
2023-03-16T02:36:46.927Z,1.62
2023-03-16T02:40:46.891Z,1.58
2023-03-16T02:44:46.838Z,1.56
2023-03-16T02:48:46.795Z,1.55
2023-03-16T02:52:46.756Z,1.56
2023-03-16T02:56:46.734Z,1.53
2023-03-16T03:00:46.696Z,1.55
2023-03-16T03:04:46.644Z,1.49
2023-03-16T03:08:46.542Z,1.49
2023-03-16T03:12:46.485Z,1.47
2023-03-16T03:16:46.756Z,1.46
2023-03-16T03:20:46.392Z,1.45
2023-03-16T03:24:46.394Z,1.43
2023-03-16T03:28:46.373Z,1.43
2023-03-16T03:32:46.352Z,1.41
2023-03-16T03:36:46.272Z,1.40
2023-03-16T03:40:46.224Z,1.38
2023-03-16T03:44:46.189Z,1.37
2023-03-16T03:48:46.166Z,1.35
2023-03-16T03:52:46.121Z,1.35
2023-03-16T03:56:46.113Z,1.36
2023-03-16T04:00:46.109Z,1.33
2023-03-16T04:04:46.057Z,1.33
2023-03-16T04:08:46.024Z,1.33
2023-03-16T04:12:46.016Z,1.32
2023-03-16T04:16:46.077Z,1.28
2023-03-16T04:20:45.952Z,1.26
2023-03-16T04:24:45.902Z,1.26
2023-03-16T04:28:45.867Z,1.26
2023-03-16T04:32:45.870Z,1.21
2023-03-16T04:36:45.830Z,1.19
2023-03-16T04:40:45.794Z,1.20
2023-03-16T04:44:45.785Z,1.20
2023-03-16T04:48:45.794Z,1.17
2023-03-16T04:52:45.762Z,1.18
2023-03-16T04:56:45.766Z,1.15
2023-03-16T05:00:45.722Z,1.15
2023-03-16T05:04:45.688Z,1.15
2023-03-16T05:08:45.673Z,1.14
2023-03-16T05:12:45.703Z,1.12
2023-03-16T05:16:45.604Z,1.14
2023-03-16T05:20:45.593Z,1.13
2023-03-16T05:24:45.510Z,1.12
2023-03-16T05:28:45.498Z,1.11
2023-03-16T05:32:45.479Z,1.08
2023-03-16T05:36:45.471Z,1.09
2023-03-16T05:40:45.446Z,1.09
2023-03-16T05:44:45.420Z,1.08
2023-03-16T05:48:45.424Z,1.05
2023-03-16T05:52:45.417Z,1.08
2023-03-16T05:56:45.349Z,1.06
2023-03-16T06:00:45.319Z,1.06
2023-03-16T06:04:45.346Z,1.06
2023-03-16T06:08:45.297Z,1.05
2023-03-16T06:12:45.272Z,1.05
2023-03-16T06:16:45.231Z,1.05
2023-03-16T06:20:45.243Z,1.03
2023-03-16T06:24:45.229Z,1.03
2023-03-16T06:28:45.194Z,1.03
2023-03-16T06:32:45.219Z,1.03
2023-03-16T06:36:45.100Z,1.05
2023-03-16T06:40:45.380Z,1.08
2023-03-16T06:44:45.397Z,1.34
2023-03-16T06:48:45.414Z,1.48
2023-03-16T06:52:45.028Z,1.76
2023-03-16T06:56:46.461Z,2.22
2023-03-16T07:00:44.942Z,2.42
2023-03-16T07:04:44.728Z,2.58
2023-03-16T07:08:44.895Z,2.63
2023-03-16T07:12:44.585Z,2.66
2023-03-16T07:16:44.438Z,2.70
2023-03-16T07:20:44.218Z,2.75
2023-03-16T07:24:44.403Z,2.76
2023-03-16T07:28:43.973Z,2.80
2023-03-16T07:32:43.966Z,2.78
2023-03-16T07:36:43.736Z,2.83
2023-03-16T07:40:43.901Z,3.04
2023-03-16T07:44:43.467Z,3.42
2023-03-16T07:48:43.322Z,4.12
2023-03-16T07:52:43.415Z,4.76
2023-03-16T07:56:49.314Z,5.25
2023-03-16T08:00:43.996Z,5.67
2023-03-16T08:04:42.938Z,6.63
2023-03-16T08:08:42.752Z,7.37
2023-03-16T08:12:42.727Z,7.57
2023-03-16T08:16:42.945Z,8.33
2023-03-16T08:20:42.704Z,8.88
2023-03-16T08:24:42.930Z,9.42
2023-03-16T08:28:42.509Z,10.27
2023-03-16T08:32:42.279Z,11.12
2023-03-16T08:36:42.471Z,11.72
2023-03-16T08:40:41.863Z,12.22
2023-03-16T08:44:41.936Z,12.82
2023-03-16T08:48:41.951Z,12.50
2023-03-16T08:52:41.475Z,11.93
2023-03-16T08:56:41.074Z,11.04
2023-03-16T09:00:41.193Z,10.55
2023-03-16T09:04:41.152Z,10.71
2023-03-16T09:08:40.934Z,10.22
2023-03-16T09:12:41.110Z,9.32
2023-03-16T09:16:40.738Z,9.19
2023-03-16T09:20:40.923Z,9.14
2023-03-16T09:24:40.448Z,8.87
2023-03-16T09:28:40.344Z,8.52
2023-03-16T09:32:40.278Z,7.39
2023-03-16T09:36:40.507Z,7.83
2023-03-16T09:40:39.996Z,7.64
2023-03-16T09:44:39.984Z,1.94
2023-03-16T09:48:39.942Z,0.81
2023-03-16T09:52:40.498Z,0.53
2023-03-16T09:56:40.467Z,1.67
2023-03-16T10:00:40.561Z,2.61
2023-03-16T10:04:40.477Z,2.34
2023-03-16T10:08:40.170Z,3.93
2023-03-16T10:12:40.465Z,4.42
2023-03-16T10:16:40.187Z,5.03
2023-03-16T10:20:39.995Z,5.20
2023-03-16T10:24:39.858Z,5.04
2023-03-16T10:28:39.703Z,5.59
2023-03-16T10:32:39.607Z,5.71
2023-03-16T10:36:39.438Z,5.71
2023-03-16T10:40:39.475Z,3.82
2023-03-16T10:44:39.117Z,2.94
2023-03-16T10:48:39.474Z,4.03
2023-03-16T10:52:38.976Z,4.91
2023-03-16T11:00:30.058Z,0.50
2023-03-16T11:04:30.101Z,0.53
2023-03-16T11:08:29.792Z,0.55
2023-03-16T11:12:29.731Z,0.58
2023-03-16T11:16:29.785Z,0.61
2023-03-16T11:20:29.647Z,0.62
2023-03-16T11:24:29.633Z,0.65
2023-03-16T11:28:29.588Z,0.67
2023-03-16T11:32:29.612Z,0.73
2023-03-16T11:36:29.717Z,0.72
2023-03-16T11:40:29.603Z,0.73
2023-03-16T11:44:29.610Z,0.72
2023-03-16T11:48:29.377Z,0.72
2023-03-16T11:52:29.319Z,0.68
2023-03-16T11:56:29.285Z,0.64
2023-03-16T12:00:29.266Z,0.64
2023-03-16T12:04:29.681Z,0.58
2023-03-16T12:08:29.221Z,0.57
2023-03-16T12:12:29.233Z,0.53
2023-03-16T12:16:39.076Z,0.50
2023-03-16T12:20:30.166Z,0.50
2023-03-16T12:24:29.153Z,0.51
2023-03-16T12:28:29.598Z,0.50
2023-03-16T12:32:29.160Z,0.51
2023-03-16T12:36:29.611Z,0.51
2023-03-16T12:40:29.620Z,0.52
2023-03-16T12:44:29.271Z,0.51
2023-03-16T12:48:29.620Z,0.52
2023-03-16T12:52:29.465Z,0.52
2023-03-16T12:56:29.598Z,0.50
2023-03-16T13:00:29.869Z,0.51
2023-03-16T13:04:29.793Z,0.51
2023-03-16T13:08:30.110Z,0.51
2023-03-16T13:12:29.808Z,0.51
2023-03-16T13:16:29.938Z,0.51
2023-03-16T13:20:31.821Z,0.50
2023-03-16T13:24:30.131Z,0.51
2023-03-16T13:28:30.131Z,0.51
2023-03-16T13:32:30.191Z,0.52
2023-03-16T13:36:30.204Z,0.51
2023-03-16T13:40:31.071Z,0.50
2023-03-16T13:44:30.334Z,0.51
2023-03-16T13:48:30.378Z,0.51
2023-03-16T13:52:30.425Z,0.51
2023-03-16T13:56:30.507Z,0.51
2023-03-16T14:00:31.100Z,0.51
2023-03-16T14:04:30.657Z,0.51
2023-03-16T14:08:30.739Z,0.51
2023-03-16T14:12:31.125Z,0.52
2023-03-16T14:16:31.154Z,0.52
2023-03-16T14:20:33.152Z,0.51
2023-03-16T14:24:30.930Z,0.50
2023-03-16T14:28:32.282Z,0.51
2023-03-16T14:32:30.794Z,0.51
2023-03-16T14:36:30.646Z,0.51
2023-03-16T14:40:30.550Z,0.52
2023-03-16T14:44:30.469Z,0.52
2023-03-16T14:48:30.477Z,0.51
2023-03-16T14:52:30.615Z,0.52
2023-03-16T14:56:31.183Z,0.51
2023-03-16T15:00:33.034Z,0.51
2023-03-16T15:04:31.745Z,0.50
2023-03-16T15:08:31.192Z,0.51
2023-03-16T15:12:31.171Z,0.56
2023-03-16T15:16:30.910Z,0.55
2023-03-16T15:20:31.096Z,0.62
2023-03-16T15:24:31.046Z,0.74
2023-03-16T15:28:31.208Z,0.78
2023-03-16T15:32:31.389Z,0.86
2023-03-16T15:36:31.492Z,0.98
2023-03-16T15:40:31.985Z,1.06
2023-03-16T15:44:31.820Z,1.15
2023-03-16T15:48:31.991Z,1.28
2023-03-16T15:52:32.152Z,1.29
2023-03-16T15:56:33.519Z,1.27
2023-03-16T16:00:32.596Z,1.30
2023-03-16T16:04:32.751Z,1.31
2023-03-16T16:08:32.906Z,1.37
2023-03-16T16:12:33.077Z,1.27
2023-03-16T16:16:33.341Z,1.32
2023-03-16T16:20:33.469Z,1.29
2023-03-16T16:24:33.657Z,1.39
2023-03-16T16:28:33.830Z,1.42
2023-03-16T16:32:34.029Z,1.38
2023-03-16T16:36:34.230Z,1.30
2023-03-16T16:40:34.464Z,1.28
2023-03-16T16:44:37.580Z,1.19
2023-03-16T16:48:34.653Z,1.15
2023-03-16T16:52:34.637Z,1.11
2023-03-16T16:56:34.597Z,1.05
2023-03-16T17:00:34.548Z,1.08
2023-03-16T17:04:34.581Z,1.02
2023-03-16T17:08:34.533Z,1.00
2023-03-16T17:12:34.459Z,0.93
2023-03-16T17:16:34.502Z,0.91
2023-03-16T17:20:34.485Z,0.91
2023-03-16T17:24:34.413Z,0.91
2023-03-16T17:28:34.360Z,0.89
2023-03-16T17:32:34.382Z,0.88
2023-03-16T17:36:34.284Z,0.87
2023-03-16T17:40:34.244Z,0.87
2023-03-16T17:44:34.253Z,0.85
2023-03-16T17:48:34.240Z,0.82
2023-03-16T17:52:34.154Z,0.80
2023-03-16T17:56:34.129Z,0.75
2023-03-16T18:00:34.203Z,0.70
2023-03-16T18:04:34.473Z,0.64
2023-03-16T18:08:34.479Z,0.64
2023-03-16T18:12:34.577Z,0.59
2023-03-16T18:16:34.719Z,0.57
2023-03-16T18:20:34.724Z,0.56
2023-03-16T18:24:34.738Z,0.55
2023-03-16T18:28:34.742Z,0.54
2023-03-16T18:32:34.768Z,0.53
2023-03-16T18:36:34.696Z,0.52
2023-03-16T18:40:34.655Z,0.51
2023-03-16T18:44:34.694Z,0.51
2023-03-16T18:48:34.654Z,0.50
2023-03-16T18:52:34.640Z,0.50
2023-03-16T18:56:34.709Z,0.51
2023-03-16T19:00:34.697Z,0.50
2023-03-16T19:04:34.668Z,0.50
2023-03-16T19:08:34.613Z,0.50
2023-03-16T19:12:34.601Z,0.50
2023-03-16T19:16:34.606Z,0.50
2023-03-16T19:20:34.629Z,0.50
2023-03-16T19:24:34.636Z,0.51
2023-03-16T19:28:34.672Z,0.51
2023-03-16T19:32:34.681Z,0.50
2023-03-16T19:36:34.775Z,0.50
2023-03-16T19:40:34.728Z,0.50
2023-03-16T19:44:34.778Z,0.50
2023-03-16T19:48:34.839Z,0.50
2023-03-16T19:52:34.907Z,0.50
2023-03-16T19:56:35.034Z,0.50
2023-03-16T20:00:35.070Z,0.50
2023-03-16T20:04:35.175Z,0.50
2023-03-16T20:08:35.231Z,0.50
2023-03-16T20:12:35.282Z,0.50
2023-03-16T20:16:35.399Z,0.51
2023-03-16T20:20:35.501Z,0.51
2023-03-16T20:24:35.524Z,0.51
2023-03-16T20:28:35.542Z,0.50
2023-03-16T20:32:35.666Z,0.50
2023-03-16T20:36:35.669Z,0.50
2023-03-16T20:40:35.765Z,0.51
2023-03-16T20:44:35.875Z,0.51
2023-03-16T20:48:35.944Z,0.50
2023-03-16T20:52:35.988Z,0.50
2023-03-16T20:56:36.088Z,0.51
2023-03-16T21:00:36.191Z,0.50
2023-03-16T21:04:36.353Z,0.50
2023-03-16T21:08:36.352Z,0.50
2023-03-16T21:12:36.441Z,0.50
2023-03-16T21:16:36.562Z,0.50
2023-03-16T21:20:36.631Z,0.50
2023-03-16T21:24:36.723Z,0.51
2023-03-16T21:28:36.830Z,0.51
2023-03-16T21:32:36.925Z,0.51
2023-03-16T21:36:37.009Z,0.50
2023-03-16T21:40:37.097Z,0.50
2023-03-16T21:44:37.195Z,0.50
2023-03-16T21:48:37.269Z,0.51
2023-03-16T21:52:37.341Z,0.50
2023-03-16T21:56:37.466Z,0.50
2023-03-16T22:00:37.563Z,0.50
2023-03-16T22:04:37.688Z,0.50
2023-03-16T22:08:37.768Z,0.51
2023-03-16T22:12:37.894Z,0.50
2023-03-16T22:16:38.182Z,0.50
2023-03-16T22:20:38.088Z,0.50
2023-03-16T22:24:38.222Z,0.50
2023-03-16T22:28:38.277Z,0.50
2023-03-16T22:32:38.400Z,0.50
2023-03-16T22:36:38.478Z,0.50
2023-03-16T22:40:38.572Z,0.50
2023-03-16T22:44:38.634Z,0.50
2023-03-16T22:48:38.720Z,0.51
2023-03-16T22:52:38.823Z,0.50
2023-03-16T22:56:38.907Z,0.51
2023-03-16T23:00:38.980Z,0.51
2023-03-16T23:04:39.095Z,0.51
2023-03-16T23:08:39.174Z,0.51
2023-03-16T23:12:39.225Z,0.50
2023-03-16T23:16:39.413Z,0.51
2023-03-16T23:20:39.426Z,0.51
2023-03-16T23:24:39.532Z,0.50
2023-03-16T23:28:39.611Z,0.50
2023-03-16T23:32:39.765Z,0.51
2023-03-16T23:36:39.844Z,0.51
2023-03-16T23:40:39.938Z,0.51
2023-03-16T23:44:40.062Z,0.50
2023-03-16T23:48:40.195Z,0.51
2023-03-16T23:52:40.277Z,0.51
2023-03-16T23:56:40.412Z,0.51
